Weather History for KLNL - April, 2013

Change the Weather History Date:

Thursday, April 25, 2013

  Actual Average (KEGV) Record (KEGV)
Temperature  
Mean Temperature 37 °F -  
Max Temperature 44 °F 57 °F 66 °F (1999)
Min Temperature 30 °F 30 °F 19 °F (2006)
Degree Days  
Heating Degree Days 28    
Moisture  
Dew Point 24 °F    
Average Humidity 64    
Maximum Humidity 100    
Minimum Humidity 29    
Precipitation  
Precipitation 0.03 in - - ()
Sea Level Pressure  
Sea Level Pressure 30.03 in    
Wind  
Wind Speed 5 mph (West)    
Max Wind Speed 13 mph    
Max Gust Speed 20 mph    
Visibility 10 miles    
Events Snow    
Averages and records for this station are not official NWS values.
T = Trace of Precipitation, MM = Missing Value Source: NWS Daily Summary

Daily Weather History Graph

Daily Weather History Graph

Search for Another Location

Airport or City:

Trip Planner

Search our weather history database for the weather conditions in past years. The results will help you decide how hot, cold, wet, or windy it might be!

Date:

Astronomy

Apr. 25, 2013 Rise Set
Actual Time 5:52 AM CDT 7:57 PM CDT
Civil Twilight 5:20 AM CDT 8:30 PM CDT
Nautical Twilight 4:40 AM CDT 9:10 PM CDT
Astronomical Twilight 3:55 AM CDT 9:55 PM CDT
Moon 8:12 PM CDT (4/25) 5:35 AM CDT (4/25)
Length of Visible Light 15h 10m
Length of Day
14h 05m
Full, 100% of the Moon is Illuminated
Apr 25
Full
Apr 25
Full
May 2
Last Quarter
May 9
New
May 17
First Quarter

Hourly Weather History & Observations

Time (CDT) Temp. Windchill Dew Point Humidity Pressure Visibility Wind Dir Wind Speed Gust Speed Precip Events Conditions
12:15 AM 32.0 °F 28.7 °F 32.0 °F 100% 29.87 in 1.2 mi West 3.5 mph - N/A Snow Snow
12:35 AM 32.0 °F - 32.0 °F 100% 29.86 in 2.5 mi Calm Calm - N/A Snow Light Snow
12:55 AM 32.0 °F - 32.0 °F 100% 29.86 in 4.0 mi Calm Calm - N/A Snow Light Snow
1:15 AM 32.0 °F - 32.0 °F 100% 29.86 in 7.0 mi Calm Calm - N/A   Overcast
1:35 AM 32.0 °F 28.7 °F 32.0 °F 100% 29.86 in 10.0 mi WNW 3.5 mph - N/A   Overcast
1:55 AM 32.0 °F 28.7 °F 32.0 °F 100% 29.86 in 10.0 mi WNW 3.5 mph - N/A   Overcast
2:15 AM 32.0 °F 27.5 °F 32.0 °F 100% 29.86 in 10.0 mi WNW 4.6 mph - N/A   Overcast
2:35 AM 32.0 °F 26.4 °F 32.0 °F 100% 29.86 in 10.0 mi NW 5.8 mph - N/A   Overcast
2:55 AM 32.0 °F 26.4 °F 30.2 °F 93% 29.87 in 10.0 mi WNW 5.8 mph - N/A   Overcast
3:15 AM 32.0 °F 27.5 °F 30.2 °F 93% 29.87 in 10.0 mi NW 4.6 mph - N/A   Overcast
3:35 AM 32.0 °F 26.4 °F 30.2 °F 93% 29.87 in 10.0 mi NW 5.8 mph - N/A   Overcast
3:55 AM 32.0 °F 26.4 °F 30.2 °F 93% 29.89 in 10.0 mi NW 5.8 mph - N/A   Overcast
4:15 AM 32.0 °F 27.5 °F 30.2 °F 93% 29.89 in 10.0 mi NNW 4.6 mph - N/A Snow Light Snow
4:35 AM 32.0 °F 27.5 °F 30.2 °F 93% 29.90 in 10.0 mi NW 4.6 mph - N/A   Overcast
4:55 AM 32.0 °F 25.6 °F 30.2 °F 93% 29.91 in 10.0 mi NW 6.9 mph - N/A Snow Light Snow
5:15 AM 32.0 °F 26.4 °F 30.2 °F 93% 29.91 in 10.0 mi NW 5.8 mph - N/A   Overcast
5:35 AM 32.0 °F 25.6 °F 28.4 °F 87% 29.92 in 10.0 mi WNW 6.9 mph - N/A   Scattered Clouds
5:55 AM 32.0 °F 27.5 °F 28.4 °F 87% 29.93 in 10.0 mi WNW 4.6 mph - N/A   Scattered Clouds
6:15 AM 30.2 °F 24.3 °F 28.4 °F 93% 29.94 in 10.0 mi WNW 5.8 mph - N/A   Mostly Cloudy
6:35 AM 32.0 °F 25.6 °F 30.2 °F 93% 29.94 in 10.0 mi West 6.9 mph - N/A   Mostly Cloudy
6:55 AM 32.0 °F 25.6 °F 30.2 °F 93% 29.95 in 10.0 mi West 6.9 mph - N/A   Scattered Clouds
7:15 AM 32.0 °F 27.5 °F 30.2 °F 93% 29.96 in 10.0 mi WNW 4.6 mph - N/A   Clear
7:35 AM 32.0 °F 24.8 °F 30.2 °F 93% 29.97 in 10.0 mi West 8.1 mph - N/A   Clear
7:55 AM 32.0 °F 27.5 °F 30.2 °F 93% 29.98 in 10.0 mi West 4.6 mph - N/A   Clear
8:15 AM 33.8 °F 28.6 °F 30.2 °F 87% 30.00 in 10.0 mi WNW 5.8 mph - 0.02 in   Clear
8:35 AM 33.8 °F 27.0 °F 30.2 °F 87% 30.00 in 10.0 mi WNW 8.1 mph - 0.03 in   Clear
8:55 AM 35.6 °F 29.9 °F 28.4 °F 75% 30.01 in 10.0 mi NW 6.9 mph - 0.03 in   Clear
9:15 AM 35.6 °F 29.9 °F 28.4 °F 75% 30.02 in 10.0 mi WNW 6.9 mph - N/A   Mostly Cloudy
9:35 AM 37.4 °F 32.8 °F 26.6 °F 65% 30.02 in 10.0 mi WNW 5.8 mph - N/A   Mostly Cloudy
9:55 AM 37.4 °F 29.8 °F 26.6 °F 65% 30.03 in 10.0 mi WNW 11.5 mph 16.1 mph N/A   Mostly Cloudy
10:15 AM 37.4 °F 29.8 °F 26.6 °F 65% 30.04 in 10.0 mi West 11.5 mph - N/A   Mostly Cloudy
10:35 AM 37.4 °F 31.4 °F 23.0 °F 56% 30.05 in 10.0 mi WNW 8.1 mph - N/A   Mostly Cloudy
10:55 AM 39.2 °F 33.0 °F 23.0 °F 52% 30.05 in 10.0 mi West 9.2 mph 16.1 mph N/A   Mostly Cloudy
11:15 AM 39.2 °F 32.5 °F 23.0 °F 52% 30.06 in 10.0 mi West 10.4 mph 17.3 mph N/A   Overcast
11:35 AM 41.0 °F 34.3 °F 21.2 °F 45% 30.06 in 10.0 mi West 11.5 mph 19.6 mph N/A   Overcast
11:55 AM 42.8 °F 36.2 °F 21.2 °F 42% 30.07 in 10.0 mi NW 12.7 mph 16.1 mph N/A   Overcast
12:15 PM 42.8 °F 37.5 °F 19.4 °F 39% 30.07 in 10.0 mi West 9.2 mph 17.3 mph N/A   Mostly Cloudy
12:35 PM 42.8 °F 37.5 °F 19.4 °F 39% 30.07 in 10.0 mi West 9.2 mph - N/A   Scattered Clouds
12:55 PM 42.8 °F 37.0 °F 19.4 °F 39% 30.08 in 10.0 mi West 10.4 mph 18.4 mph N/A   Mostly Cloudy
1:15 PM 42.8 °F 36.6 °F 19.4 °F 39% 30.08 in 10.0 mi WNW 11.5 mph 18.4 mph N/A   Mostly Cloudy
1:35 PM 42.8 °F 39.3 °F 17.6 °F 36% 30.08 in 10.0 mi NW 5.8 mph 9.2 mph N/A   Scattered Clouds
1:55 PM 42.8 °F 37.0 °F 17.6 °F 36% 30.09 in 10.0 mi NW 10.4 mph - N/A   Scattered Clouds
2:15 PM 42.8 °F 38.0 °F 17.6 °F 36% 30.10 in 10.0 mi West 8.1 mph - N/A   Mostly Cloudy
2:35 PM 42.8 °F 38.6 °F 19.4 °F 39% 30.10 in 10.0 mi WNW 6.9 mph - N/A   Scattered Clouds
2:55 PM 44.6 °F 40.7 °F 17.6 °F 34% 30.10 in 10.0 mi West 6.9 mph - N/A   Scattered Clouds
3:15 PM 44.6 °F 42.2 °F 17.6 °F 34% 30.10 in 10.0 mi SW 4.6 mph - N/A   Mostly Cloudy
3:35 PM 44.6 °F 40.7 °F 17.6 °F 34% 30.10 in 10.0 mi West 6.9 mph - N/A   Scattered Clouds
3:55 PM 44.6 °F 40.7 °F 17.6 °F 34% 30.10 in 10.0 mi WSW 6.9 mph 18.4 mph N/A   Scattered Clouds
4:15 PM 44.6 °F 40.2 °F 15.8 °F 31% 30.10 in 10.0 mi WSW 8.1 mph - N/A   Scattered Clouds
4:35 PM 44.6 °F 40.7 °F 14.0 °F 29% 30.10 in 10.0 mi SW 6.9 mph - N/A   Clear
4:55 PM 44.6 °F 39.2 °F 14.0 °F 29% 30.10 in 10.0 mi WSW 10.4 mph - N/A   Clear
5:15 PM 44.6 °F 40.7 °F 14.0 °F 29% 30.11 in 10.0 mi West 6.9 mph - N/A   Clear
5:35 PM 44.6 °F 40.7 °F 15.8 °F 31% 30.11 in 10.0 mi West 6.9 mph - N/A   Clear
5:55 PM 44.6 °F 40.7 °F 14.0 °F 29% 30.11 in 10.0 mi SW 6.9 mph - N/A   Scattered Clouds
6:15 PM 44.6 °F 39.7 °F 15.8 °F 31% 30.12 in 10.0 mi SW 9.2 mph - N/A   Scattered Clouds
6:35 PM 44.6 °F 39.7 °F 15.8 °F 31% 30.12 in 10.0 mi SW 9.2 mph - N/A   Scattered Clouds
6:55 PM 42.8 °F 40.1 °F 15.8 °F 34% 30.12 in 10.0 mi SW 4.6 mph - N/A   Scattered Clouds
7:15 PM 42.8 °F 38.0 °F 17.6 °F 36% 30.12 in 10.0 mi SW 8.1 mph - N/A   Scattered Clouds
7:35 PM 42.8 °F 40.1 °F 19.4 °F 39% 30.13 in 10.0 mi SSW 4.6 mph - N/A   Scattered Clouds
7:55 PM 41.0 °F 38.0 °F 21.2 °F 45% 30.13 in 10.0 mi SSW 4.6 mph - N/A   Clear
8:15 PM 39.2 °F 35.9 °F 21.2 °F 49% 30.13 in 10.0 mi SSW 4.6 mph - N/A   Clear
8:55 PM 37.4 °F 33.8 °F 21.2 °F 52% 30.15 in 10.0 mi SW 4.6 mph - N/A   Clear
9:15 PM 35.6 °F 32.8 °F 23.0 °F 60% 30.16 in 10.0 mi SW 3.5 mph - N/A   Clear
9:35 PM 35.6 °F 32.8 °F 23.0 °F 60% 30.16 in 10.0 mi SW 3.5 mph - N/A   Clear
9:55 PM 35.6 °F 32.8 °F 23.0 °F 60% 30.17 in 10.0 mi SW 3.5 mph - N/A   Clear
10:15 PM 33.8 °F 30.8 °F 23.0 °F 65% 30.18 in 10.0 mi SW 3.5 mph - N/A   Clear
10:35 PM 33.8 °F - 23.0 °F 65% 30.18 in 10.0 mi Calm Calm - N/A   Clear
10:55 PM 33.8 °F - 23.0 °F 65% 30.17 in 10.0 mi Calm Calm - N/A   Clear
11:15 PM 30.2 °F - 23.0 °F 75% 30.17 in 10.0 mi Calm Calm - N/A   Clear
11:35 PM 30.2 °F - 23.0 °F 75% 30.17 in 10.0 mi Calm Calm - N/A   Clear
11:55 PM 30.2 °F - 23.0 °F 75% 30.18 in 10.0 mi Calm Calm - N/A   Clear